sensor_id;sensor_type;location;lat;lon;timestamp;temperature;humidity
44215;DHT22;29884;47.450;19.124;2023-04-29T00:01:11;12.00;99.90
44215;DHT22;29884;47.450;19.124;2023-04-29T00:03:38;12.00;99.90
44215;DHT22;29884;47.450;19.124;2023-04-29T00:06:03;11.90;99.90
44215;DHT22;29884;47.450;19.124;2023-04-29T00:08:30;12.00;99.90
44215;DHT22;29884;47.450;19.124;2023-04-29T00:10:55;12.00;99.90
44215;DHT22;29884;47.450;19.124;2023-04-29T00:13:21;12.00;99.90
44215;DHT22;29884;47.450;19.124;2023-04-29T00:15:47;11.90;99.90
44215;DHT22;29884;47.450;19.124;2023-04-29T00:18:13;11.90;99.90
44215;DHT22;29884;47.450;19.124;2023-04-29T00:20:39;11.90;99.90
44215;DHT22;29884;47.450;19.124;2023-04-29T00:23:05;11.90;99.90
44215;DHT22;29884;47.450;19.124;2023-04-29T00:25:32;11.90;99.90
44215;DHT22;29884;47.450;19.124;2023-04-29T00:27:57;11.90;99.90
44215;DHT22;29884;47.450;19.124;2023-04-29T00:30:27;11.90;99.90
44215;DHT22;29884;47.450;19.124;2023-04-29T00:32:53;11.90;99.90
44215;DHT22;29884;47.450;19.124;2023-04-29T00:35:20;11.90;99.90
44215;DHT22;29884;47.450;19.124;2023-04-29T00:37:46;11.90;99.90
44215;DHT22;29884;47.450;19.124;2023-04-29T00:40:12;11.90;99.90
44215;DHT22;29884;47.450;19.124;2023-04-29T00:42:40;11.90;99.90
44215;DHT22;29884;47.450;19.124;2023-04-29T00:45:07;11.90;99.90
44215;DHT22;29884;47.450;19.124;2023-04-29T00:47:33;11.90;99.90
44215;DHT22;29884;47.450;19.124;2023-04-29T00:49:58;11.90;99.90
44215;DHT22;29884;47.450;19.124;2023-04-29T00:52:25;11.90;99.90
44215;DHT22;29884;47.450;19.124;2023-04-29T00:54:53;11.90;99.90
44215;DHT22;29884;47.450;19.124;2023-04-29T00:57:20;11.90;99.90
44215;DHT22;29884;47.450;19.124;2023-04-29T00:59:47;11.90;99.90
44215;DHT22;29884;47.450;19.124;2023-04-29T01:02:14;11.90;99.90
44215;DHT22;29884;47.450;19.124;2023-04-29T01:04:42;11.90;99.90
44215;DHT22;29884;47.450;19.124;2023-04-29T01:07:14;11.90;99.90
44215;DHT22;29884;47.450;19.124;2023-04-29T01:09:58;11.90;99.90
44215;DHT22;29884;47.450;19.124;2023-04-29T01:15:09;11.90;99.90
44215;DHT22;29884;47.450;19.124;2023-04-29T01:17:46;11.90;99.90
44215;DHT22;29884;47.450;19.124;2023-04-29T01:20:13;11.90;99.90
44215;DHT22;29884;47.450;19.124;2023-04-29T01:22:39;11.90;99.90
44215;DHT22;29884;47.450;19.124;2023-04-29T01:25:08;11.90;99.90
44215;DHT22;29884;47.450;19.124;2023-04-29T01:28:01;11.90;99.90
44215;DHT22;29884;47.450;19.124;2023-04-29T01:33:22;11.90;99.90
44215;DHT22;29884;47.450;19.124;2023-04-29T01:44:01;11.90;99.90
44215;DHT22;29884;47.450;19.124;2023-04-29T01:46:30;11.90;99.90
44215;DHT22;29884;47.450;19.124;2023-04-29T01:48:56;11.80;99.90
44215;DHT22;29884;47.450;19.124;2023-04-29T01:51:21;11.80;99.90
44215;DHT22;29884;47.450;19.124;2023-04-29T01:53:47;11.80;99.90
44215;DHT22;29884;47.450;19.124;2023-04-29T01:56:13;11.70;99.90
44215;DHT22;29884;47.450;19.124;2023-04-29T01:58:39;11.70;99.90
44215;DHT22;29884;47.450;19.124;2023-04-29T02:01:05;11.70;99.90
44215;DHT22;29884;47.450;19.124;2023-04-29T02:03:31;11.70;99.90
44215;DHT22;29884;47.450;19.124;2023-04-29T02:05:57;11.70;99.90
44215;DHT22;29884;47.450;19.124;2023-04-29T02:08:23;11.70;99.90
44215;DHT22;29884;47.450;19.124;2023-04-29T02:10:57;11.70;99.90
44215;DHT22;29884;47.450;19.124;2023-04-29T02:13:23;11.70;99.90
44215;DHT22;29884;47.450;19.124;2023-04-29T02:15:49;11.60;99.90
44215;DHT22;29884;47.450;19.124;2023-04-29T02:18:15;11.60;99.90
44215;DHT22;29884;47.450;19.124;2023-04-29T02:20:41;11.60;99.90
44215;DHT22;29884;47.450;19.124;2023-04-29T02:23:06;11.60;99.90
44215;DHT22;29884;47.450;19.124;2023-04-29T02:25:32;11.60;99.90
44215;DHT22;29884;47.450;19.124;2023-04-29T02:27:58;11.60;99.90
44215;DHT22;29884;47.450;19.124;2023-04-29T02:30:24;11.60;99.90
44215;DHT22;29884;47.450;19.124;2023-04-29T02:32:49;11.60;99.90
44215;DHT22;29884;47.450;19.124;2023-04-29T02:35:15;11.60;99.90
44215;DHT22;29884;47.450;19.124;2023-04-29T02:37:41;11.60;99.90
44215;DHT22;29884;47.450;19.124;2023-04-29T02:40:07;11.60;99.90
44215;DHT22;29884;47.450;19.124;2023-04-29T02:42:33;11.60;99.90
44215;DHT22;29884;47.450;19.124;2023-04-29T02:44:59;11.60;99.90
44215;DHT22;29884;47.450;19.124;2023-04-29T02:47:25;11.60;99.90
44215;DHT22;29884;47.450;19.124;2023-04-29T02:49:51;11.60;99.90
44215;DHT22;29884;47.450;19.124;2023-04-29T02:52:17;11.60;99.90
44215;DHT22;29884;47.450;19.124;2023-04-29T02:54:43;11.60;99.90
44215;DHT22;29884;47.450;19.124;2023-04-29T02:57:09;11.60;99.90
44215;DHT22;29884;47.450;19.124;2023-04-29T02:59:35;11.60;99.90
44215;DHT22;29884;47.450;19.124;2023-04-29T03:02:01;11.60;99.90
44215;DHT22;29884;47.450;19.124;2023-04-29T03:04:27;11.50;99.90
44215;DHT22;29884;47.450;19.124;2023-04-29T03:06:54;11.50;99.90
44215;DHT22;29884;47.450;19.124;2023-04-29T03:09:23;11.50;99.90
44215;DHT22;29884;47.450;19.124;2023-04-29T03:11:49;11.60;99.90
44215;DHT22;29884;47.450;19.124;2023-04-29T03:14:15;11.60;99.90
44215;DHT22;29884;47.450;19.124;2023-04-29T03:16:41;11.50;99.90
44215;DHT22;29884;47.450;19.124;2023-04-29T03:19:08;11.50;99.90
44215;DHT22;29884;47.450;19.124;2023-04-29T03:21:34;11.50;99.90
44215;DHT22;29884;47.450;19.124;2023-04-29T03:24:00;11.50;99.90
44215;DHT22;29884;47.450;19.124;2023-04-29T03:26:26;11.50;99.90
44215;DHT22;29884;47.450;19.124;2023-04-29T03:28:52;11.50;99.90
44215;DHT22;29884;47.450;19.124;2023-04-29T03:31:18;11.60;99.90
44215;DHT22;29884;47.450;19.124;2023-04-29T03:33:45;11.50;99.90
44215;DHT22;29884;47.450;19.124;2023-04-29T03:36:11;11.50;99.90
44215;DHT22;29884;47.450;19.124;2023-04-29T03:38:37;11.50;99.90
44215;DHT22;29884;47.450;19.124;2023-04-29T03:41:03;11.40;99.90
44215;DHT22;29884;47.450;19.124;2023-04-29T03:43:29;11.50;99.90
44215;DHT22;29884;47.450;19.124;2023-04-29T03:45:55;11.50;99.90
44215;DHT22;29884;47.450;19.124;2023-04-29T03:48:21;11.50;99.90
44215;DHT22;29884;47.450;19.124;2023-04-29T03:50:47;11.50;99.90
44215;DHT22;29884;47.450;19.124;2023-04-29T03:53:13;11.50;99.90
44215;DHT22;29884;47.450;19.124;2023-04-29T03:55:39;11.50;99.90
44215;DHT22;29884;47.450;19.124;2023-04-29T03:58:05;11.50;99.90
44215;DHT22;29884;47.450;19.124;2023-04-29T04:00:31;11.50;99.90
44215;DHT22;29884;47.450;19.124;2023-04-29T04:02:57;11.50;99.90
44215;DHT22;29884;47.450;19.124;2023-04-29T04:05:23;11.50;99.90
44215;DHT22;29884;47.450;19.124;2023-04-29T04:07:53;11.50;99.90
44215;DHT22;29884;47.450;19.124;2023-04-29T04:10:18;11.50;99.90
44215;DHT22;29884;47.450;19.124;2023-04-29T04:12:44;11.50;99.90
44215;DHT22;29884;47.450;19.124;2023-04-29T04:15:11;11.50;99.90
44215;DHT22;29884;47.450;19.124;2023-04-29T04:17:37;11.50;99.90
44215;DHT22;29884;47.450;19.124;2023-04-29T04:20:04;11.50;99.90
44215;DHT22;29884;47.450;19.124;2023-04-29T04:22:30;11.50;99.90
44215;DHT22;29884;47.450;19.124;2023-04-29T04:24:55;11.50;99.90
44215;DHT22;29884;47.450;19.124;2023-04-29T04:27:21;11.50;99.90
44215;DHT22;29884;47.450;19.124;2023-04-29T04:29:47;11.50;99.90
44215;DHT22;29884;47.450;19.124;2023-04-29T04:32:13;11.40;99.90
44215;DHT22;29884;47.450;19.124;2023-04-29T04:34:38;11.40;99.90
44215;DHT22;29884;47.450;19.124;2023-04-29T04:37:05;11.40;99.90
44215;DHT22;29884;47.450;19.124;2023-04-29T04:39:31;11.30;99.90
44215;DHT22;29884;47.450;19.124;2023-04-29T04:41:57;11.30;99.90
44215;DHT22;29884;47.450;19.124;2023-04-29T04:44:23;11.20;99.90
44215;DHT22;29884;47.450;19.124;2023-04-29T04:46:50;11.30;99.90
44215;DHT22;29884;47.450;19.124;2023-04-29T04:49:16;11.30;99.90
44215;DHT22;29884;47.450;19.124;2023-04-29T04:51:45;11.30;99.90
44215;DHT22;29884;47.450;19.124;2023-04-29T04:54:11;11.30;99.90
44215;DHT22;29884;47.450;19.124;2023-04-29T04:56:38;11.30;99.90
44215;DHT22;29884;47.450;19.124;2023-04-29T04:59:04;11.40;99.90
44215;DHT22;29884;47.450;19.124;2023-04-29T05:01:29;11.30;99.90
44215;DHT22;29884;47.450;19.124;2023-04-29T05:03:55;11.30;99.90
44215;DHT22;29884;47.450;19.124;2023-04-29T05:06:21;11.30;99.90
44215;DHT22;29884;47.450;19.124;2023-04-29T05:08:47;11.40;99.90
44215;DHT22;29884;47.450;19.124;2023-04-29T05:11:20;11.40;99.90
44215;DHT22;29884;47.450;19.124;2023-04-29T05:13:47;11.40;99.90
44215;DHT22;29884;47.450;19.124;2023-04-29T05:16:13;11.50;99.90
44215;DHT22;29884;47.450;19.124;2023-04-29T05:18:39;11.50;99.90
44215;DHT22;29884;47.450;19.124;2023-04-29T05:21:05;11.60;99.90
44215;DHT22;29884;47.450;19.124;2023-04-29T05:23:30;11.70;99.90
44215;DHT22;29884;47.450;19.124;2023-04-29T05:25:56;11.80;99.90
44215;DHT22;29884;47.450;19.124;2023-04-29T05:28:22;11.70;99.90
44215;DHT22;29884;47.450;19.124;2023-04-29T05:30:50;11.70;99.90
44215;DHT22;29884;47.450;19.124;2023-04-29T05:33:16;11.80;99.90
44215;DHT22;29884;47.450;19.124;2023-04-29T05:35:42;11.80;99.90
44215;DHT22;29884;47.450;19.124;2023-04-29T05:38:08;11.80;99.90
44215;DHT22;29884;47.450;19.124;2023-04-29T05:40:33;11.80;99.90
44215;DHT22;29884;47.450;19.124;2023-04-29T05:42:59;11.80;99.90
44215;DHT22;29884;47.450;19.124;2023-04-29T05:45:25;11.80;99.90
44215;DHT22;29884;47.450;19.124;2023-04-29T05:47:51;11.80;99.90
44215;DHT22;29884;47.450;19.124;2023-04-29T05:50:17;11.80;99.90
44215;DHT22;29884;47.450;19.124;2023-04-29T05:52:42;11.80;99.90
44215;DHT22;29884;47.450;19.124;2023-04-29T05:55:08;11.80;99.90
44215;DHT22;29884;47.450;19.124;2023-04-29T05:57:34;11.70;99.90
44215;DHT22;29884;47.450;19.124;2023-04-29T06:00:00;11.70;99.90
44215;DHT22;29884;47.450;19.124;2023-04-29T06:02:26;11.70;99.90
44215;DHT22;29884;47.450;19.124;2023-04-29T06:04:52;11.60;99.90
44215;DHT22;29884;47.450;19.124;2023-04-29T06:07:18;11.70;99.90
44215;DHT22;29884;47.450;19.124;2023-04-29T06:09:44;11.70;99.90
44215;DHT22;29884;47.450;19.124;2023-04-29T06:12:10;11.80;99.90
44215;DHT22;29884;47.450;19.124;2023-04-29T06:14:36;11.80;99.90
44215;DHT22;29884;47.450;19.124;2023-04-29T06:17:02;11.90;99.90
44215;DHT22;29884;47.450;19.124;2023-04-29T06:19:28;11.90;99.90
44215;DHT22;29884;47.450;19.124;2023-04-29T06:21:54;11.90;99.90
44215;DHT22;29884;47.450;19.124;2023-04-29T06:24:20;11.90;99.90
44215;DHT22;29884;47.450;19.124;2023-04-29T06:26:45;12.00;99.90
44215;DHT22;29884;47.450;19.124;2023-04-29T06:29:11;12.00;99.90
44215;DHT22;29884;47.450;19.124;2023-04-29T06:31:37;12.00;99.90
44215;DHT22;29884;47.450;19.124;2023-04-29T06:34:03;12.00;99.90
44215;DHT22;29884;47.450;19.124;2023-04-29T06:36:29;12.00;99.90
44215;DHT22;29884;47.450;19.124;2023-04-29T06:38:54;12.00;99.90
44215;DHT22;29884;47.450;19.124;2023-04-29T06:41:20;12.10;99.90
44215;DHT22;29884;47.450;19.124;2023-04-29T06:43:46;12.00;99.90
44215;DHT22;29884;47.450;19.124;2023-04-29T06:46:12;12.10;99.90
44215;DHT22;29884;47.450;19.124;2023-04-29T06:48:38;12.00;99.90
44215;DHT22;29884;47.450;19.124;2023-04-29T06:51:04;12.10;99.90
44215;DHT22;29884;47.450;19.124;2023-04-29T06:53:29;12.70;99.90
44215;DHT22;29884;47.450;19.124;2023-04-29T06:55:55;12.70;99.90
44215;DHT22;29884;47.450;19.124;2023-04-29T06:58:21;12.50;99.90
44215;DHT22;29884;47.450;19.124;2023-04-29T07:00:48;12.50;99.90
44215;DHT22;29884;47.450;19.124;2023-04-29T07:03:15;12.50;99.90
44215;DHT22;29884;47.450;19.124;2023-04-29T07:05:41;12.40;99.90
44215;DHT22;29884;47.450;19.124;2023-04-29T07:08:10;12.50;99.90
44215;DHT22;29884;47.450;19.124;2023-04-29T07:10:36;12.50;99.90
44215;DHT22;29884;47.450;19.124;2023-04-29T07:13:02;12.40;99.90
44215;DHT22;29884;47.450;19.124;2023-04-29T07:15:28;12.40;99.90
44215;DHT22;29884;47.450;19.124;2023-04-29T07:17:55;12.40;99.90
44215;DHT22;29884;47.450;19.124;2023-04-29T07:20:21;12.30;99.90
44215;DHT22;29884;47.450;19.124;2023-04-29T07:22:46;12.40;99.90
44215;DHT22;29884;47.450;19.124;2023-04-29T07:25:12;12.50;99.90
44215;DHT22;29884;47.450;19.124;2023-04-29T07:27:39;12.50;99.90
44215;DHT22;29884;47.450;19.124;2023-04-29T07:30:05;12.60;99.90
44215;DHT22;29884;47.450;19.124;2023-04-29T07:32:31;12.60;99.90
44215;DHT22;29884;47.450;19.124;2023-04-29T07:34:58;12.60;99.90
44215;DHT22;29884;47.450;19.124;2023-04-29T07:37:24;12.50;99.90
44215;DHT22;29884;47.450;19.124;2023-04-29T07:39:50;12.50;99.90
44215;DHT22;29884;47.450;19.124;2023-04-29T07:42:16;12.50;99.90
44215;DHT22;29884;47.450;19.124;2023-04-29T07:44:42;12.60;99.90
44215;DHT22;29884;47.450;19.124;2023-04-29T07:47:09;12.70;99.90
44215;DHT22;29884;47.450;19.124;2023-04-29T07:49:35;12.80;99.90
44215;DHT22;29884;47.450;19.124;2023-04-29T07:52:03;12.90;99.90
44215;DHT22;29884;47.450;19.124;2023-04-29T07:54:28;12.90;99.90
44215;DHT22;29884;47.450;19.124;2023-04-29T07:56:57;13.00;99.90
44215;DHT22;29884;47.450;19.124;2023-04-29T07:59:22;13.10;99.90
44215;DHT22;29884;47.450;19.124;2023-04-29T08:01:48;13.20;99.90
44215;DHT22;29884;47.450;19.124;2023-04-29T08:04:14;13.20;99.60
44215;DHT22;29884;47.450;19.124;2023-04-29T08:06:40;13.20;99.00
44215;DHT22;29884;47.450;19.124;2023-04-29T08:09:08;13.40;99.80
44215;DHT22;29884;47.450;19.124;2023-04-29T08:11:35;13.50;99.00
44215;DHT22;29884;47.450;19.124;2023-04-29T08:14:01;13.60;98.60
44215;DHT22;29884;47.450;19.124;2023-04-29T08:16:26;13.70;99.20
44215;DHT22;29884;47.450;19.124;2023-04-29T08:18:52;13.80;98.30
44215;DHT22;29884;47.450;19.124;2023-04-29T08:21:19;13.80;97.90
44215;DHT22;29884;47.450;19.124;2023-04-29T08:23:45;13.80;97.00
44215;DHT22;29884;47.450;19.124;2023-04-29T08:26:11;13.80;96.80
44215;DHT22;29884;47.450;19.124;2023-04-29T08:28:40;13.80;96.80
44215;DHT22;29884;47.450;19.124;2023-04-29T08:31:05;13.80;96.20
44215;DHT22;29884;47.450;19.124;2023-04-29T08:33:33;13.80;96.50
44215;DHT22;29884;47.450;19.124;2023-04-29T08:35:59;13.80;94.90
44215;DHT22;29884;47.450;19.124;2023-04-29T08:38:30;13.90;95.90
44215;DHT22;29884;47.450;19.124;2023-04-29T08:40:56;13.90;95.60
44215;DHT22;29884;47.450;19.124;2023-04-29T08:43:22;13.90;95.20
44215;DHT22;29884;47.450;19.124;2023-04-29T08:45:48;13.90;95.00
44215;DHT22;29884;47.450;19.124;2023-04-29T08:48:18;14.00;94.70
44215;DHT22;29884;47.450;19.124;2023-04-29T08:50:44;14.20;94.30
44215;DHT22;29884;47.450;19.124;2023-04-29T08:53:12;14.40;93.30
44215;DHT22;29884;47.450;19.124;2023-04-29T08:55:45;14.40;93.70
44215;DHT22;29884;47.450;19.124;2023-04-29T08:58:13;14.50;92.20
44215;DHT22;29884;47.450;19.124;2023-04-29T09:00:40;14.50;92.30
44215;DHT22;29884;47.450;19.124;2023-04-29T09:03:24;14.60;92.80
44215;DHT22;29884;47.450;19.124;2023-04-29T09:05:55;14.70;91.60
44215;DHT22;29884;47.450;19.124;2023-04-29T09:08:23;14.90;92.10
44215;DHT22;29884;47.450;19.124;2023-04-29T09:10:52;15.00;90.90
44215;DHT22;29884;47.450;19.124;2023-04-29T09:13:25;15.20;90.80
44215;DHT22;29884;47.450;19.124;2023-04-29T09:15:51;15.20;88.20
44215;DHT22;29884;47.450;19.124;2023-04-29T09:21:29;15.30;85.30
44215;DHT22;29884;47.450;19.124;2023-04-29T09:24:00;15.40;83.90
44215;DHT22;29884;47.450;19.124;2023-04-29T09:26:27;15.40;85.50
44215;DHT22;29884;47.450;19.124;2023-04-29T09:29:09;15.40;86.00
44215;DHT22;29884;47.450;19.124;2023-04-29T09:31:39;15.50;85.10
44215;DHT22;29884;47.450;19.124;2023-04-29T09:34:05;15.60;82.00
44215;DHT22;29884;47.450;19.124;2023-04-29T09:36:49;15.60;80.90
44215;DHT22;29884;47.450;19.124;2023-04-29T09:39:20;15.60;79.30
44215;DHT22;29884;47.450;19.124;2023-04-29T09:44:21;15.60;81.40
44215;DHT22;29884;47.450;19.124;2023-04-29T09:46:55;15.70;80.50
44215;DHT22;29884;47.450;19.124;2023-04-29T09:49:40;15.80;78.90
44215;DHT22;29884;47.450;19.124;2023-04-29T09:52:15;15.90;78.00
44215;DHT22;29884;47.450;19.124;2023-04-29T09:54:45;16.10;75.50
44215;DHT22;29884;47.450;19.124;2023-04-29T09:57:12;16.10;76.60
44215;DHT22;29884;47.450;19.124;2023-04-29T09:59:40;16.10;76.00
44215;DHT22;29884;47.450;19.124;2023-04-29T10:02:16;16.20;77.00
44215;DHT22;29884;47.450;19.124;2023-04-29T10:04:55;16.70;77.10
44215;DHT22;29884;47.450;19.124;2023-04-29T10:07:22;16.70;72.80
44215;DHT22;29884;47.450;19.124;2023-04-29T10:09:48;16.80;71.50
44215;DHT22;29884;47.450;19.124;2023-04-29T10:12:18;17.20;71.10
44215;DHT22;29884;47.450;19.124;2023-04-29T10:17:48;17.10;69.90
44215;DHT22;29884;47.450;19.124;2023-04-29T10:20:23;17.40;69.80
44215;DHT22;29884;47.450;19.124;2023-04-29T10:22:51;17.30;69.70
44215;DHT22;29884;47.450;19.124;2023-04-29T10:25:18;17.20;69.60
44215;DHT22;29884;47.450;19.124;2023-04-29T10:27:45;17.20;69.30
44215;DHT22;29884;47.450;19.124;2023-04-29T10:30:15;17.50;69.00
44215;DHT22;29884;47.450;19.124;2023-04-29T10:32:47;17.60;69.30
44215;DHT22;29884;47.450;19.124;2023-04-29T10:35:14;17.70;67.40
44215;DHT22;29884;47.450;19.124;2023-04-29T10:37:41;17.80;68.30
44215;DHT22;29884;47.450;19.124;2023-04-29T10:40:11;17.90;67.10
44215;DHT22;29884;47.450;19.124;2023-04-29T10:42:49;17.80;66.60
44215;DHT22;29884;47.450;19.124;2023-04-29T10:45:29;17.50;66.30
44215;DHT22;29884;47.450;19.124;2023-04-29T10:53:11;17.60;66.40
44215;DHT22;29884;47.450;19.124;2023-04-29T10:55:38;17.60;65.90
44215;DHT22;29884;47.450;19.124;2023-04-29T10:58:05;17.60;68.60
44215;DHT22;29884;47.450;19.124;2023-04-29T11:00:33;18.00;65.10
44215;DHT22;29884;47.450;19.124;2023-04-29T11:03:00;18.40;64.80
44215;DHT22;29884;47.450;19.124;2023-04-29T11:05:34;18.40;63.80
44215;DHT22;29884;47.450;19.124;2023-04-29T11:08:10;18.80;64.00
44215;DHT22;29884;47.450;19.124;2023-04-29T11:10:40;18.40;62.50
44215;DHT22;29884;47.450;19.124;2023-04-29T11:13:26;18.40;63.80
44215;DHT22;29884;47.450;19.124;2023-04-29T11:16:03;18.40;63.60
44215;DHT22;29884;47.450;19.124;2023-04-29T11:18:28;18.50;63.20
44215;DHT22;29884;47.450;19.124;2023-04-29T11:23:29;18.50;64.60
44215;DHT22;29884;47.450;19.124;2023-04-29T11:25:56;19.00;65.10
44215;DHT22;29884;47.450;19.124;2023-04-29T11:28:22;19.10;62.90
44215;DHT22;29884;47.450;19.124;2023-04-29T11:30:49;18.80;60.60
44215;DHT22;29884;47.450;19.124;2023-04-29T11:33:15;18.60;62.40
44215;DHT22;29884;47.450;19.124;2023-04-29T11:35:42;18.60;62.60
44215;DHT22;29884;47.450;19.124;2023-04-29T11:38:08;18.40;62.80
44215;DHT22;29884;47.450;19.124;2023-04-29T11:40:34;18.60;63.90
44215;DHT22;29884;47.450;19.124;2023-04-29T11:43:00;18.60;62.10
44215;DHT22;29884;47.450;19.124;2023-04-29T11:45:25;18.90;64.80
44215;DHT22;29884;47.450;19.124;2023-04-29T11:47:52;19.10;64.30
44215;DHT22;29884;47.450;19.124;2023-04-29T11:50:18;18.90;62.90
44215;DHT22;29884;47.450;19.124;2023-04-29T11:52:48;19.00;62.80
44215;DHT22;29884;47.450;19.124;2023-04-29T11:55:14;19.60;63.60
44215;DHT22;29884;47.450;19.124;2023-04-29T11:57:39;19.50;62.60
44215;DHT22;29884;47.450;19.124;2023-04-29T12:00:10;19.20;61.50
44215;DHT22;29884;47.450;19.124;2023-04-29T12:02:42;19.10;63.10
44215;DHT22;29884;47.450;19.124;2023-04-29T12:05:08;19.30;64.10
44215;DHT22;29884;47.450;19.124;2023-04-29T12:07:34;19.30;62.70
44215;DHT22;29884;47.450;19.124;2023-04-29T12:10:01;19.40;63.20
44215;DHT22;29884;47.450;19.124;2023-04-29T12:12:27;19.90;61.30
44215;DHT22;29884;47.450;19.124;2023-04-29T12:14:53;19.80;60.40
44215;DHT22;29884;47.450;19.124;2023-04-29T12:17:19;19.80;60.60
44215;DHT22;29884;47.450;19.124;2023-04-29T12:19:45;20.10;61.20
44215;DHT22;29884;47.450;19.124;2023-04-29T12:22:12;20.10;60.00
44215;DHT22;29884;47.450;19.124;2023-04-29T12:24:40;20.10;59.80
44215;DHT22;29884;47.450;19.124;2023-04-29T12:27:09;20.10;59.00
44215;DHT22;29884;47.450;19.124;2023-04-29T12:29:36;20.30;59.00
44215;DHT22;29884;47.450;19.124;2023-04-29T12:32:02;20.30;59.50
44215;DHT22;29884;47.450;19.124;2023-04-29T12:34:28;20.60;59.50
44215;DHT22;29884;47.450;19.124;2023-04-29T12:36:56;20.80;60.10
44215;DHT22;29884;47.450;19.124;2023-04-29T12:39:23;21.10;59.80
44215;DHT22;29884;47.450;19.124;2023-04-29T12:41:54;21.40;58.50
44215;DHT22;29884;47.450;19.124;2023-04-29T12:44:20;21.20;55.30
44215;DHT22;29884;47.450;19.124;2023-04-29T12:46:46;21.10;57.70
44215;DHT22;29884;47.450;19.124;2023-04-29T12:49:11;21.30;58.00
44215;DHT22;29884;47.450;19.124;2023-04-29T12:51:37;21.30;56.80
44215;DHT22;29884;47.450;19.124;2023-04-29T12:54:03;20.40;58.80
44215;DHT22;29884;47.450;19.124;2023-04-29T12:56:32;20.60;59.00
44215;DHT22;29884;47.450;19.124;2023-04-29T12:59:07;20.70;57.40
44215;DHT22;29884;47.450;19.124;2023-04-29T13:01:34;20.60;57.90
44215;DHT22;29884;47.450;19.124;2023-04-29T13:04:00;20.30;58.10
44215;DHT22;29884;47.450;19.124;2023-04-29T13:06:26;20.50;57.30
44215;DHT22;29884;47.450;19.124;2023-04-29T13:08:51;20.20;58.20
44215;DHT22;29884;47.450;19.124;2023-04-29T13:11:17;20.10;59.00
44215;DHT22;29884;47.450;19.124;2023-04-29T13:13:43;19.80;59.30
44215;DHT22;29884;47.450;19.124;2023-04-29T13:16:09;19.50;59.10
44215;DHT22;29884;47.450;19.124;2023-04-29T13:18:35;19.90;60.80
44215;DHT22;29884;47.450;19.124;2023-04-29T13:21:01;19.90;59.30
44215;DHT22;29884;47.450;19.124;2023-04-29T13:23:27;20.00;59.30
44215;DHT22;29884;47.450;19.124;2023-04-29T13:25:53;20.30;58.40
44215;DHT22;29884;47.450;19.124;2023-04-29T13:28:18;20.30;60.20
44215;DHT22;29884;47.450;19.124;2023-04-29T13:30:44;20.50;59.30
44215;DHT22;29884;47.450;19.124;2023-04-29T13:33:10;20.20;58.40
44215;DHT22;29884;47.450;19.124;2023-04-29T13:35:35;20.30;58.70
44215;DHT22;29884;47.450;19.124;2023-04-29T13:38:02;20.40;58.80
44215;DHT22;29884;47.450;19.124;2023-04-29T13:40:28;20.90;61.50
44215;DHT22;29884;47.450;19.124;2023-04-29T13:42:54;21.00;58.00
44215;DHT22;29884;47.450;19.124;2023-04-29T13:45:20;20.40;57.60
44215;DHT22;29884;47.450;19.124;2023-04-29T13:47:46;19.90;58.90
44215;DHT22;29884;47.450;19.124;2023-04-29T13:50:11;19.70;59.10
44215;DHT22;29884;47.450;19.124;2023-04-29T13:52:37;19.60;59.10
44215;DHT22;29884;47.450;19.124;2023-04-29T13:55:03;20.00;59.80
44215;DHT22;29884;47.450;19.124;2023-04-29T13:57:29;20.30;59.40
44215;DHT22;29884;47.450;19.124;2023-04-29T13:59:55;20.30;60.40
44215;DHT22;29884;47.450;19.124;2023-04-29T14:02:21;20.60;58.90
44215;DHT22;29884;47.450;19.124;2023-04-29T14:04:47;20.70;57.80
44215;DHT22;29884;47.450;19.124;2023-04-29T14:07:13;20.80;58.90
44215;DHT22;29884;47.450;19.124;2023-04-29T14:09:39;20.70;59.20
44215;DHT22;29884;47.450;19.124;2023-04-29T14:12:05;20.40;58.40
44215;DHT22;29884;47.450;19.124;2023-04-29T14:14:31;20.20;58.60
44215;DHT22;29884;47.450;19.124;2023-04-29T14:16:57;20.20;59.10
44215;DHT22;29884;47.450;19.124;2023-04-29T14:19:22;20.10;59.70
44215;DHT22;29884;47.450;19.124;2023-04-29T14:21:48;20.00;59.70
44215;DHT22;29884;47.450;19.124;2023-04-29T14:24:14;19.80;59.50
44215;DHT22;29884;47.450;19.124;2023-04-29T14:26:40;19.80;59.50
44215;DHT22;29884;47.450;19.124;2023-04-29T14:29:06;19.80;59.90
44215;DHT22;29884;47.450;19.124;2023-04-29T14:31:35;19.80;59.90
44215;DHT22;29884;47.450;19.124;2023-04-29T14:34:04;19.70;59.80
44215;DHT22;29884;47.450;19.124;2023-04-29T14:36:30;19.80;59.70
44215;DHT22;29884;47.450;19.124;2023-04-29T14:38:59;19.70;61.00
44215;DHT22;29884;47.450;19.124;2023-04-29T14:41:26;19.60;60.10
44215;DHT22;29884;47.450;19.124;2023-04-29T14:43:52;19.60;60.30
44215;DHT22;29884;47.450;19.124;2023-04-29T14:46:18;19.50;61.30
44215;DHT22;29884;47.450;19.124;2023-04-29T14:48:43;19.60;61.00
44215;DHT22;29884;47.450;19.124;2023-04-29T14:51:10;19.50;61.30
44215;DHT22;29884;47.450;19.124;2023-04-29T14:53:36;19.40;60.80
44215;DHT22;29884;47.450;19.124;2023-04-29T14:56:02;19.40;61.30
44215;DHT22;29884;47.450;19.124;2023-04-29T14:58:28;19.40;61.80
44215;DHT22;29884;47.450;19.124;2023-04-29T15:00:54;19.40;60.60
44215;DHT22;29884;47.450;19.124;2023-04-29T15:03:21;19.30;61.30
44215;DHT22;29884;47.450;19.124;2023-04-29T15:05:47;19.20;61.20
44215;DHT22;29884;47.450;19.124;2023-04-29T15:08:15;19.10;62.00
44215;DHT22;29884;47.450;19.124;2023-04-29T15:10:42;19.20;62.20
44215;DHT22;29884;47.450;19.124;2023-04-29T15:13:08;19.00;63.50
44215;DHT22;29884;47.450;19.124;2023-04-29T15:15:34;19.10;63.50
44215;DHT22;29884;47.450;19.124;2023-04-29T15:18:00;19.40;63.00
44215;DHT22;29884;47.450;19.124;2023-04-29T15:20:26;19.60;63.60
44215;DHT22;29884;47.450;19.124;2023-04-29T15:22:52;19.80;62.00
44215;DHT22;29884;47.450;19.124;2023-04-29T15:25:17;19.80;60.70
44215;DHT22;29884;47.450;19.124;2023-04-29T15:27:43;19.90;60.40
44215;DHT22;29884;47.450;19.124;2023-04-29T15:30:09;19.70;61.10
44215;DHT22;29884;47.450;19.124;2023-04-29T15:32:35;19.60;61.50
44215;DHT22;29884;47.450;19.124;2023-04-29T15:35:02;19.50;63.50
44215;DHT22;29884;47.450;19.124;2023-04-29T15:37:29;19.50;62.20
44215;DHT22;29884;47.450;19.124;2023-04-29T15:39:57;19.30;62.50
44215;DHT22;29884;47.450;19.124;2023-04-29T15:42:23;19.20;62.70
44215;DHT22;29884;47.450;19.124;2023-04-29T15:44:49;19.30;63.70